createdAt,value
2018-03-27T00:02:10.669Z,95.30
2018-03-27T00:04:38.204Z,95.40
2018-03-27T00:07:06.480Z,95.60
2018-03-27T00:09:33.926Z,95.60
2018-03-27T00:12:01.395Z,95.70
2018-03-27T00:14:28.846Z,95.70
2018-03-27T00:16:56.301Z,95.70
2018-03-27T00:19:23.783Z,96.00
2018-03-27T00:21:51.236Z,95.90
2018-03-27T00:24:19.452Z,96.20
2018-03-27T00:26:58.805Z,96.20
2018-03-27T00:29:38.058Z,95.90
2018-03-27T00:32:17.494Z,95.80
2018-03-27T00:34:56.942Z,95.70
2018-03-27T00:37:36.413Z,95.60
2018-03-27T00:40:15.806Z,96.00
2018-03-27T00:45:42.665Z,96.00
2018-03-27T00:48:10.126Z,96.10
2018-03-27T00:50:37.574Z,96.00
2018-03-27T00:53:05.026Z,95.70
2018-03-27T00:55:32.494Z,95.60
2018-03-27T00:57:59.946Z,95.70
2018-03-27T01:00:28.158Z,95.90
2018-03-27T01:02:55.640Z,95.80
2018-03-27T01:05:23.192Z,95.90
2018-03-27T01:07:51.405Z,96.20
2018-03-27T01:10:18.881Z,96.20
2018-03-27T01:12:46.329Z,96.50
2018-03-27T01:15:13.892Z,96.50
2018-03-27T01:17:41.405Z,96.70
2018-03-27T01:20:08.846Z,96.60
2018-03-27T01:22:36.300Z,96.80
2018-03-27T01:25:03.791Z,96.90
2018-03-27T01:27:31.278Z,96.90
2018-03-27T01:29:58.729Z,96.90
2018-03-27T01:32:26.522Z,96.90
2018-03-27T01:34:53.978Z,97.00
2018-03-27T01:37:21.429Z,97.00
2018-03-27T01:39:48.902Z,97.20
2018-03-27T01:42:16.349Z,97.20
2018-03-27T01:44:44.563Z,97.30
2018-03-27T01:47:12.062Z,97.30
2018-03-27T01:49:39.533Z,97.40
2018-03-27T01:52:06.986Z,97.30
2018-03-27T01:54:34.474Z,97.40
2018-03-27T01:57:01.942Z,97.40
2018-03-27T01:59:29.420Z,97.50
2018-03-27T02:01:56.979Z,97.60
2018-03-27T02:04:24.430Z,97.70
2018-03-27T02:06:51.913Z,97.50
2018-03-27T02:09:19.373Z,97.60
2018-03-27T02:11:52.559Z,97.60
2018-03-27T02:14:25.836Z,97.60
2018-03-27T02:16:59.029Z,97.90
2018-03-27T02:19:32.286Z,97.80
2018-03-27T02:21:59.273Z,97.80
2018-03-27T02:24:26.733Z,97.90
2018-03-27T02:26:54.220Z,98.10
2018-03-27T02:29:21.674Z,98.10
2018-03-27T02:31:49.154Z,98.10
2018-03-27T02:34:16.579Z,98.00
2018-03-27T02:36:44.053Z,98.00
2018-03-27T02:39:11.505Z,98.10
2018-03-27T02:41:39.751Z,98.30
2018-03-27T02:44:07.322Z,98.20
2018-03-27T02:46:34.774Z,98.10
2018-03-27T02:49:02.225Z,98.30
2018-03-27T02:51:29.694Z,98.20
2018-03-27T02:53:57.142Z,98.30
2018-03-27T02:56:25.381Z,98.20
2018-03-27T02:58:52.845Z,98.20
2018-03-27T03:01:20.295Z,98.10
2018-03-27T03:03:47.751Z,98.10
2018-03-27T03:06:15.338Z,98.20
2018-03-27T03:08:42.847Z,98.00
2018-03-27T03:11:10.291Z,98.20
2018-03-27T03:13:37.762Z,98.10
2018-03-27T03:16:05.214Z,98.30
2018-03-27T03:18:32.662Z,98.40
2018-03-27T03:21:00.906Z,98.50
2018-03-27T03:23:28.360Z,98.40
2018-03-27T03:25:55.846Z,98.50
2018-03-27T03:28:23.324Z,98.50
2018-03-27T03:30:50.790Z,98.30
2018-03-27T03:33:18.248Z,98.40
2018-03-27T03:35:45.713Z,98.10
2018-03-27T03:38:13.171Z,97.90
2018-03-27T03:40:40.621Z,98.10
2018-03-27T03:43:08.092Z,98.20
2018-03-27T03:45:35.606Z,98.30
2018-03-27T03:48:03.067Z,98.50
2018-03-27T03:50:30.538Z,98.50
2018-03-27T03:52:57.999Z,98.60
2018-03-27T03:55:25.459Z,98.70
2018-03-27T03:57:52.926Z,98.70
2018-03-27T04:00:20.397Z,98.70
2018-03-27T04:02:47.834Z,98.90
2018-03-27T04:05:16.061Z,99.00
2018-03-27T04:07:43.518Z,98.90
2018-03-27T04:10:11.014Z,98.70
2018-03-27T04:12:38.493Z,98.70
2018-03-27T04:15:05.961Z,98.50
2018-03-27T04:17:33.416Z,98.50
2018-03-27T04:20:00.995Z,98.30
2018-03-27T04:22:28.438Z,98.50
2018-03-27T04:24:55.895Z,98.20
2018-03-27T04:27:23.422Z,98.20
2018-03-27T04:29:50.977Z,98.60
2018-03-27T04:32:18.425Z,98.60
2018-03-27T04:34:45.898Z,98.50
2018-03-27T04:37:13.390Z,98.40
2018-03-27T04:39:40.869Z,98.10
2018-03-27T04:42:08.435Z,98.20
2018-03-27T04:44:35.921Z,98.50
2018-03-27T04:47:03.471Z,98.50
2018-03-27T04:49:30.942Z,98.50
2018-03-27T04:51:58.409Z,98.70
2018-03-27T04:54:25.870Z,99.80
2018-03-27T04:57:47.314Z,98.40
2018-03-27T05:00:14.758Z,98.20
2018-03-27T05:02:42.206Z,98.90
2018-03-27T05:05:10.512Z,98.70
2018-03-27T05:07:38.726Z,99.20
2018-03-27T05:10:06.206Z,99.20
2018-03-27T05:12:33.986Z,98.80
2018-03-27T05:15:01.438Z,98.50
2018-03-27T05:17:28.902Z,98.30
2018-03-27T05:19:56.366Z,98.20
2018-03-27T05:22:23.822Z,98.20
2018-03-27T05:24:51.266Z,98.40
2018-03-27T05:27:18.730Z,98.60
2018-03-27T05:29:46.186Z,98.90
2018-03-27T05:32:14.263Z,99.00
2018-03-27T05:34:41.735Z,99.20
2018-03-27T05:37:09.189Z,99.10
2018-03-27T05:39:36.638Z,99.10
2018-03-27T05:42:04.139Z,99.10
2018-03-27T05:44:31.590Z,99.20
2018-03-27T05:46:59.050Z,99.10
2018-03-27T05:49:27.015Z,99.20
2018-03-27T05:51:54.465Z,99.10
2018-03-27T05:54:22.698Z,99.20
2018-03-27T05:56:50.178Z,99.20
2018-03-27T05:59:17.638Z,99.20
2018-03-27T06:01:45.098Z,99.00
2018-03-27T06:04:12.547Z,99.00
2018-03-27T06:06:40.123Z,98.80
2018-03-27T06:09:07.574Z,99.20
2018-03-27T06:11:35.786Z,99.10
2018-03-27T06:14:03.290Z,99.10
2018-03-27T06:16:30.750Z,99.00
2018-03-27T06:18:58.221Z,99.00
2018-03-27T06:21:25.702Z,99.00
2018-03-27T06:23:53.166Z,98.90
2018-03-27T06:26:20.633Z,98.80
2018-03-27T06:28:48.091Z,98.60
2018-03-27T06:31:15.553Z,98.40
2018-03-27T06:33:43.012Z,98.00
2018-03-27T06:36:10.514Z,97.60
2018-03-27T06:38:37.966Z,97.30
2018-03-27T06:41:05.421Z,96.90
2018-03-27T06:43:32.887Z,96.70
2018-03-27T06:46:00.339Z,96.30
2018-03-27T06:48:28.562Z,95.70
2018-03-27T06:50:56.030Z,95.70
2018-03-27T06:53:23.490Z,95.30
2018-03-27T06:55:50.984Z,94.80
2018-03-27T06:58:18.439Z,94.50
2018-03-27T07:00:45.982Z,94.20
2018-03-27T07:03:13.398Z,93.60
2018-03-27T07:05:40.940Z,93.20
2018-03-27T07:08:08.684Z,92.90
2018-03-27T07:10:36.114Z,92.40
2018-03-27T07:13:03.571Z,92.50
2018-03-27T07:15:31.046Z,92.10
2018-03-27T07:17:58.550Z,91.60
2018-03-27T07:20:26.019Z,91.20
2018-03-27T07:22:53.466Z,90.70
2018-03-27T07:25:20.930Z,90.20
2018-03-27T07:27:48.412Z,88.60
2018-03-27T07:30:15.859Z,88.40
2018-03-27T07:32:43.326Z,88.70
2018-03-27T07:35:10.813Z,88.40
2018-03-27T07:37:38.270Z,88.50
2018-03-27T07:40:05.730Z,86.90
2018-03-27T07:42:33.196Z,85.80
2018-03-27T07:45:00.695Z,86.40
2018-03-27T07:47:28.142Z,86.60
2018-03-27T07:49:55.702Z,85.30
2018-03-27T07:52:23.219Z,85.50
2018-03-27T07:54:50.678Z,84.90
2018-03-27T07:57:18.255Z,86.20
2018-03-27T07:59:45.728Z,87.10
2018-03-27T08:02:13.310Z,86.70
2018-03-27T08:04:40.778Z,87.60
2018-03-27T08:07:08.226Z,87.20
2018-03-27T08:09:36.026Z,87.90
2018-03-27T08:12:03.580Z,87.00
2018-03-27T08:14:31.043Z,87.00
2018-03-27T08:16:58.528Z,86.30
2018-03-27T08:19:26.054Z,86.30
2018-03-27T08:21:53.513Z,86.80
2018-03-27T08:24:21.087Z,86.90
2018-03-27T08:26:49.200Z,87.00
2018-03-27T08:29:16.718Z,87.10
2018-03-27T08:31:44.161Z,88.20
2018-03-27T08:34:11.658Z,88.60
2018-03-27T08:36:39.210Z,87.70
2018-03-27T08:39:06.654Z,87.70
2018-03-27T08:41:34.125Z,86.90
2018-03-27T08:44:01.583Z,85.50
2018-03-27T08:46:29.075Z,85.20
2018-03-27T08:48:56.521Z,84.70
2018-03-27T08:51:23.979Z,85.20
2018-03-27T08:53:51.463Z,85.50
2018-03-27T08:56:18.918Z,85.80
2018-03-27T08:58:46.430Z,84.80
2018-03-27T09:01:13.960Z,81.90
2018-03-27T09:03:41.448Z,79.60
2018-03-27T09:06:09.637Z,80.00
2018-03-27T09:08:37.126Z,80.00
2018-03-27T09:11:04.595Z,79.60
2018-03-27T09:13:32.054Z,76.90
2018-03-27T09:15:59.510Z,75.30
2018-03-27T09:18:26.974Z,73.80
2018-03-27T09:20:54.431Z,71.80
2018-03-27T09:23:21.986Z,69.10
2018-03-27T09:25:50.217Z,65.60
2018-03-27T09:28:17.725Z,66.10
2018-03-27T09:30:45.146Z,69.10
2018-03-27T09:33:12.598Z,71.30
2018-03-27T09:35:40.053Z,73.20
2018-03-27T09:38:08.294Z,72.90
2018-03-27T09:40:35.769Z,72.80
2018-03-27T09:43:03.231Z,74.50
2018-03-27T09:45:30.725Z,72.60
2018-03-27T09:47:58.146Z,70.00
2018-03-27T09:50:25.712Z,70.30
2018-03-27T09:52:53.180Z,68.40
2018-03-27T09:55:21.390Z,69.60
2018-03-27T09:57:48.850Z,69.60
2018-03-27T10:00:16.320Z,70.30
2018-03-27T10:02:43.769Z,67.70
2018-03-27T10:05:12.014Z,63.90
2018-03-27T10:07:39.490Z,63.70
2018-03-27T10:10:06.938Z,63.70
2018-03-27T10:12:34.459Z,60.40
2018-03-27T10:15:02.705Z,57.90
2018-03-27T10:17:30.158Z,57.80
2018-03-27T10:19:57.610Z,53.70
2018-03-27T10:22:25.086Z,52.80
2018-03-27T10:24:52.534Z,54.20
2018-03-27T10:27:20.019Z,54.50
2018-03-27T10:29:48.275Z,56.60
2018-03-27T10:32:16.492Z,56.20
2018-03-27T10:34:43.952Z,56.00
2018-03-27T10:37:12.282Z,53.70
2018-03-27T10:39:39.750Z,53.80
2018-03-27T10:42:07.201Z,55.10
2018-03-27T10:44:34.677Z,53.90
2018-03-27T10:47:02.233Z,54.30
2018-03-27T10:49:29.687Z,55.20
2018-03-27T10:51:57.923Z,57.00
2018-03-27T10:54:25.377Z,56.90
2018-03-27T10:56:52.926Z,58.70
2018-03-27T10:59:21.226Z,59.30
2018-03-27T11:01:48.721Z,59.30
2018-03-27T11:04:16.194Z,59.50
2018-03-27T11:06:43.658Z,57.60
2018-03-27T11:09:11.136Z,57.20
2018-03-27T11:11:38.618Z,56.90
2018-03-27T11:14:06.070Z,55.90
2018-03-27T11:16:33.545Z,54.70
2018-03-27T11:19:01.038Z,53.00
2018-03-27T11:21:28.502Z,52.40
2018-03-27T11:23:55.958Z,49.80
2018-03-27T11:26:23.414Z,48.80
2018-03-27T11:28:50.872Z,49.40
2018-03-27T11:31:18.338Z,47.30
2018-03-27T11:33:45.791Z,50.50
2018-03-27T11:36:13.286Z,52.10
2018-03-27T11:38:40.726Z,54.00
2018-03-27T11:41:08.186Z,55.10
2018-03-27T11:43:36.434Z,56.20
2018-03-27T11:46:03.914Z,56.10
2018-03-27T11:48:31.386Z,56.50
2018-03-27T11:50:58.938Z,57.20
2018-03-27T11:53:26.386Z,56.50
2018-03-27T11:55:53.858Z,56.50
2018-03-27T11:58:21.306Z,55.60
2018-03-27T12:00:48.883Z,54.90
2018-03-27T12:03:17.113Z,53.00
2018-03-27T12:05:44.578Z,53.10
2018-03-27T12:08:12.069Z,51.50
2018-03-27T12:10:39.589Z,49.10
2018-03-27T12:13:07.098Z,49.20
2018-03-27T12:15:34.574Z,49.20
2018-03-27T12:18:02.096Z,50.00
2018-03-27T12:20:29.664Z,51.20
2018-03-27T12:22:57.882Z,51.90
2018-03-27T12:25:25.362Z,51.90
2018-03-27T12:27:52.834Z,52.80
2018-03-27T12:30:20.370Z,51.80
2018-03-27T12:32:47.859Z,53.20
2018-03-27T12:35:15.320Z,54.50
2018-03-27T12:37:42.921Z,56.20
2018-03-27T12:40:10.392Z,57.00
2018-03-27T12:42:37.860Z,58.40
2018-03-27T12:45:05.430Z,58.60
2018-03-27T12:47:32.903Z,59.00
2018-03-27T12:50:00.375Z,60.00
2018-03-27T12:52:27.827Z,60.80
2018-03-27T12:54:55.287Z,61.90
2018-03-27T12:57:22.762Z,62.20
2018-03-27T12:59:50.282Z,65.80
2018-03-27T13:02:18.026Z,64.30
2018-03-27T13:04:45.490Z,62.80
2018-03-27T13:07:12.955Z,64.10
2018-03-27T13:09:40.434Z,64.00
2018-03-27T13:12:07.918Z,64.50
2018-03-27T13:14:35.777Z,65.00
2018-03-27T13:17:03.230Z,64.70
2018-03-27T13:19:30.722Z,66.40
2018-03-27T13:21:58.188Z,66.10
2018-03-27T13:24:26.068Z,68.10
2018-03-27T13:26:53.536Z,67.50
2018-03-27T13:29:20.982Z,67.60
2018-03-27T13:31:48.482Z,68.90
2018-03-27T13:34:16.063Z,69.10
2018-03-27T13:36:43.514Z,70.20
2018-03-27T13:39:11.002Z,70.70
2018-03-27T13:41:39.710Z,71.10
2018-03-27T13:44:07.254Z,72.40
2018-03-27T13:46:34.727Z,73.00
2018-03-27T13:49:02.214Z,73.60
2018-03-27T13:51:29.678Z,73.70
2018-03-27T13:53:57.134Z,74.30
2018-03-27T13:56:24.634Z,74.30
2018-03-27T13:58:52.143Z,74.30
2018-03-27T14:01:20.375Z,75.80
2018-03-27T14:03:47.941Z,75.80
2018-03-27T14:06:15.398Z,76.20
2018-03-27T14:08:42.867Z,75.90
2018-03-27T14:11:10.322Z,76.10
2018-03-27T14:13:37.849Z,77.40
2018-03-27T14:16:05.318Z,77.90
2018-03-27T14:18:34.286Z,78.50
2018-03-27T14:21:01.794Z,78.50
2018-03-27T14:23:29.323Z,80.50
2018-03-27T14:25:56.794Z,79.90
2018-03-27T14:28:24.270Z,81.70
2018-03-27T14:30:52.506Z,83.30
2018-03-27T14:33:20.730Z,85.30
2018-03-27T14:35:48.250Z,85.30
2018-03-27T14:38:15.734Z,85.70
2018-03-27T14:40:43.191Z,87.60
2018-03-27T14:43:10.750Z,88.10
2018-03-27T14:45:38.197Z,89.40
2018-03-27T14:48:05.712Z,90.10
2018-03-27T14:50:33.950Z,89.70
2018-03-27T14:53:01.414Z,89.90
2018-03-27T14:55:28.893Z,87.80
2018-03-27T14:57:56.380Z,87.10
2018-03-27T15:00:23.950Z,86.60
2018-03-27T15:02:51.429Z,87.40
2018-03-27T15:05:18.906Z,87.70
2018-03-27T15:07:46.353Z,88.20
2018-03-27T15:10:13.814Z,89.10
2018-03-27T15:12:41.282Z,89.50
2018-03-27T15:15:08.740Z,89.70
2018-03-27T15:17:36.218Z,90.40
2018-03-27T15:20:03.674Z,90.80
2018-03-27T15:22:31.153Z,91.10
2018-03-27T15:24:58.597Z,91.80
2018-03-27T15:27:26.842Z,92.90
2018-03-27T15:29:54.472Z,92.90
2018-03-27T15:32:21.909Z,93.30
2018-03-27T15:34:49.370Z,93.20
2018-03-27T15:37:16.828Z,93.70
2018-03-27T15:39:44.303Z,94.60
2018-03-27T15:42:11.751Z,94.90
2018-03-27T15:44:39.239Z,95.50
2018-03-27T15:47:06.709Z,95.60
2018-03-27T15:49:34.174Z,95.90
2018-03-27T15:52:01.679Z,95.90
2018-03-27T15:54:29.925Z,96.10
2018-03-27T15:56:57.397Z,96.10
2018-03-27T15:59:24.878Z,96.50
2018-03-27T16:01:52.341Z,96.80
2018-03-27T16:04:19.817Z,96.80
2018-03-27T16:06:47.266Z,96.80
2018-03-27T16:09:14.735Z,97.10
2018-03-27T16:11:42.190Z,97.40
2018-03-27T16:14:09.685Z,97.30
2018-03-27T16:16:37.143Z,97.60
2018-03-27T16:19:04.586Z,98.00
2018-03-27T16:21:32.054Z,97.60
2018-03-27T16:23:59.497Z,97.30
2018-03-27T16:26:27.732Z,97.60
2018-03-27T16:28:55.190Z,97.40
2018-03-27T16:31:22.663Z,96.30
2018-03-27T16:33:50.225Z,96.60
2018-03-27T16:36:17.711Z,96.50
2018-03-27T16:38:45.198Z,96.40
2018-03-27T16:41:12.646Z,96.80
2018-03-27T16:43:40.120Z,97.20
2018-03-27T16:46:07.611Z,96.70
2018-03-27T16:48:35.185Z,97.50
2018-03-27T16:51:02.654Z,97.40
2018-03-27T16:53:30.107Z,97.80
2018-03-27T16:55:57.602Z,97.50
2018-03-27T16:58:25.046Z,97.90
2018-03-27T17:00:52.518Z,97.90
2018-03-27T17:03:19.969Z,98.30
2018-03-27T17:05:47.433Z,98.50
2018-03-27T17:08:14.905Z,98.70
2018-03-27T17:10:42.429Z,98.80
2018-03-27T17:13:09.890Z,99.50
2018-03-27T17:15:37.388Z,98.80
2018-03-27T17:18:05.616Z,98.30
2018-03-27T17:20:33.075Z,98.00
2018-03-27T17:23:00.543Z,98.30
2018-03-27T17:25:28.753Z,99.10
2018-03-27T17:27:56.214Z,99.10
2018-03-27T17:30:23.674Z,99.20
2018-03-27T17:32:51.139Z,99.40
2018-03-27T17:35:18.585Z,99.20
2018-03-27T17:37:47.805Z,99.50
2018-03-27T17:40:16.014Z,99.90
2018-03-27T17:42:43.471Z,99.90
2018-03-27T17:45:10.990Z,99.60
2018-03-27T17:47:38.462Z,99.60
2018-03-27T17:50:05.922Z,99.70
2018-03-27T17:52:33.374Z,99.90
2018-03-27T17:55:00.827Z,99.90
2018-03-27T17:57:28.333Z,99.90
2018-03-27T17:59:55.785Z,99.90
2018-03-27T18:02:23.250Z,99.90
2018-03-27T18:04:50.700Z,99.90
2018-03-27T18:07:18.198Z,99.90
2018-03-27T18:11:33.790Z,99.90
2018-03-27T18:15:11.345Z,99.90
2018-03-27T18:17:38.826Z,99.90
2018-03-27T18:20:06.400Z,99.90
2018-03-27T18:22:33.846Z,99.90
2018-03-27T18:25:01.298Z,99.90
2018-03-27T18:27:28.769Z,99.90
2018-03-27T18:29:56.219Z,99.90
2018-03-27T18:32:23.678Z,99.90
2018-03-27T18:34:51.921Z,99.90
2018-03-27T18:37:19.457Z,99.90
2018-03-27T18:39:46.870Z,99.90
2018-03-27T18:42:14.326Z,99.90
2018-03-27T18:44:41.806Z,99.90
2018-03-27T18:47:09.262Z,99.90
2018-03-27T18:49:36.725Z,99.90
2018-03-27T18:52:04.203Z,99.90
2018-03-27T18:54:32.180Z,99.90
2018-03-27T18:56:59.829Z,99.90
2018-03-27T18:59:28.048Z,99.90
2018-03-27T19:01:55.517Z,99.90
2018-03-27T19:04:22.966Z,99.90
2018-03-27T19:06:50.457Z,99.90
2018-03-27T19:09:17.897Z,99.90
2018-03-27T19:11:45.619Z,99.90
2018-03-27T19:14:13.066Z,99.90
2018-03-27T19:16:40.650Z,99.90
2018-03-27T19:19:08.236Z,99.90
2018-03-27T19:21:35.687Z,99.90
2018-03-27T19:24:03.169Z,99.90
2018-03-27T19:26:32.174Z,99.90
2018-03-27T19:28:59.701Z,99.90
2018-03-27T19:31:27.171Z,99.90
2018-03-27T19:33:55.384Z,99.90
2018-03-27T19:36:22.850Z,99.90
2018-03-27T19:38:50.301Z,99.90
2018-03-27T19:41:17.759Z,99.90
2018-03-27T19:43:46.061Z,99.80
2018-03-27T19:46:13.531Z,99.80
2018-03-27T19:48:41.009Z,99.90
2018-03-27T19:51:08.465Z,99.90
2018-03-27T19:53:36.049Z,99.90
2018-03-27T19:56:03.499Z,99.90
2018-03-27T19:58:31.805Z,99.90
2018-03-27T20:00:59.306Z,99.90
2018-03-27T20:03:26.775Z,99.90
2018-03-27T20:05:54.255Z,99.90
2018-03-27T20:08:21.699Z,99.90
2018-03-27T20:10:49.174Z,99.90
2018-03-27T20:13:16.669Z,99.90
2018-03-27T20:15:44.233Z,99.90
2018-03-27T20:18:11.698Z,99.90
2018-03-27T20:20:39.167Z,99.90
2018-03-27T20:23:06.633Z,99.90
2018-03-27T20:25:34.086Z,99.90
2018-03-27T20:28:01.590Z,99.90
2018-03-27T20:30:29.082Z,99.90
2018-03-27T20:32:57.326Z,99.90
2018-03-27T20:35:24.781Z,99.90
2018-03-27T20:37:52.242Z,99.90
2018-03-27T20:40:19.711Z,99.90
2018-03-27T20:42:47.227Z,99.90
2018-03-27T20:45:14.671Z,99.90
2018-03-27T20:47:42.147Z,99.90
2018-03-27T20:50:09.623Z,99.90
2018-03-27T20:52:37.094Z,99.90
2018-03-27T20:55:04.546Z,99.90
2018-03-27T20:57:32.014Z,99.90
2018-03-27T20:59:59.459Z,99.90
2018-03-27T21:02:26.939Z,99.90
2018-03-27T21:04:54.441Z,99.90
2018-03-27T21:07:21.942Z,99.90
2018-03-27T21:09:49.386Z,99.90
2018-03-27T21:12:16.837Z,99.90
2018-03-27T21:14:44.302Z,99.90
2018-03-27T21:17:11.762Z,99.90
2018-03-27T21:19:39.219Z,99.90
2018-03-27T21:22:06.669Z,99.90
2018-03-27T21:24:34.907Z,99.90
2018-03-27T21:27:02.362Z,99.90
2018-03-27T21:29:29.810Z,99.90
2018-03-27T21:31:57.274Z,99.90
2018-03-27T21:34:25.491Z,99.90
2018-03-27T21:36:52.982Z,99.90
2018-03-27T21:39:20.442Z,99.90
2018-03-27T21:41:47.988Z,99.90
2018-03-27T21:44:16.218Z,99.90
2018-03-27T21:46:43.686Z,99.90
2018-03-27T21:49:11.145Z,99.90
2018-03-27T21:51:38.598Z,99.90
2018-03-27T21:54:06.071Z,99.90
2018-03-27T21:56:33.509Z,99.90
2018-03-27T21:59:01.765Z,99.90
2018-03-27T22:01:29.206Z,99.90
2018-03-27T22:03:56.653Z,99.90
2018-03-27T22:06:25.955Z,99.90
2018-03-27T22:08:54.165Z,99.90
2018-03-27T22:11:21.628Z,99.90
2018-03-27T22:13:49.078Z,99.90
2018-03-27T22:16:17.312Z,99.90
2018-03-27T22:18:44.833Z,99.90
2018-03-27T22:21:13.051Z,99.90
2018-03-27T22:23:40.562Z,99.90
2018-03-27T22:26:08.014Z,99.90
2018-03-27T22:28:35.486Z,99.90
2018-03-27T22:31:02.934Z,99.90
2018-03-27T22:33:30.413Z,99.90
2018-03-27T22:35:57.857Z,99.90
2018-03-27T22:38:25.635Z,99.90
2018-03-27T22:40:53.086Z,99.90
2018-03-27T22:43:21.373Z,99.90
2018-03-27T22:45:49.618Z,99.90
2018-03-27T22:48:17.081Z,99.90
2018-03-27T22:50:44.554Z,99.90
2018-03-27T22:53:12.006Z,99.90
2018-03-27T22:55:39.466Z,99.90
2018-03-27T22:58:06.962Z,99.90
2018-03-27T23:00:34.446Z,99.90
2018-03-27T23:03:01.912Z,99.90
2018-03-27T23:05:29.357Z,99.90
2018-03-27T23:07:56.818Z,99.90
2018-03-27T23:10:24.275Z,99.90
2018-03-27T23:12:51.795Z,99.90
2018-03-27T23:15:19.258Z,99.90
2018-03-27T23:17:46.727Z,99.90
2018-03-27T23:20:14.177Z,99.90
2018-03-27T23:22:41.676Z,99.90
2018-03-27T23:25:09.198Z,99.90
2018-03-27T23:27:36.640Z,99.90
2018-03-27T23:30:04.106Z,99.90
2018-03-27T23:32:31.562Z,99.90
2018-03-27T23:34:59.039Z,99.90
2018-03-27T23:37:26.549Z,99.90
2018-03-27T23:39:54.148Z,99.90
2018-03-27T23:42:21.571Z,99.90
2018-03-27T23:44:49.802Z,99.90
2018-03-27T23:47:17.286Z,99.90
2018-03-27T23:49:44.738Z,99.90
2018-03-27T23:52:12.221Z,99.90
2018-03-27T23:54:39.693Z,99.90
2018-03-27T23:57:07.157Z,99.90
2018-03-27T23:59:34.608Z,99.90
